sensor_id;sensor_type;location;lat;lon;timestamp;temperature;humidity
67141;DHT22;54058;52.010;5.546;2023-02-15T00:01:16;4.80;83.20
67141;DHT22;54058;52.010;5.546;2023-02-15T00:03:41;4.80;84.00
67141;DHT22;54058;52.010;5.546;2023-02-15T00:06:07;4.80;83.60
67141;DHT22;54058;52.010;5.546;2023-02-15T00:08:33;4.80;83.50
67141;DHT22;54058;52.010;5.546;2023-02-15T00:11:10;4.70;83.60
67141;DHT22;54058;52.010;5.546;2023-02-15T00:13:35;4.80;83.80
67141;DHT22;54058;52.010;5.546;2023-02-15T00:16:06;4.80;83.80
67141;DHT22;54058;52.010;5.546;2023-02-15T00:18:33;4.80;83.50
67141;DHT22;54058;52.010;5.546;2023-02-15T00:21:03;4.70;83.60
67141;DHT22;54058;52.010;5.546;2023-02-15T00:23:30;4.80;83.70
67141;DHT22;54058;52.010;5.546;2023-02-15T00:26:11;4.70;83.40
67141;DHT22;54058;52.010;5.546;2023-02-15T00:28:37;4.70;83.70
67141;DHT22;54058;52.010;5.546;2023-02-15T00:31:09;4.70;83.70
67141;DHT22;54058;52.010;5.546;2023-02-15T00:33:35;4.60;83.60
67141;DHT22;54058;52.010;5.546;2023-02-15T00:36:04;4.60;83.70
67141;DHT22;54058;52.010;5.546;2023-02-15T00:38:30;4.70;83.90
67141;DHT22;54058;52.010;5.546;2023-02-15T00:41:02;4.70;83.80
67141;DHT22;54058;52.010;5.546;2023-02-15T00:43:29;4.70;83.60
67141;DHT22;54058;52.010;5.546;2023-02-15T00:45:55;4.70;83.60
67141;DHT22;54058;52.010;5.546;2023-02-15T00:48:21;4.70;84.40
67141;DHT22;54058;52.010;5.546;2023-02-15T00:50:50;4.70;83.60
67141;DHT22;54058;52.010;5.546;2023-02-15T00:53:16;4.60;83.60
67141;DHT22;54058;52.010;5.546;2023-02-15T00:55:42;4.60;83.60
67141;DHT22;54058;52.010;5.546;2023-02-15T00:58:09;4.60;83.80
67141;DHT22;54058;52.010;5.546;2023-02-15T01:00:35;4.60;83.70
67141;DHT22;54058;52.010;5.546;2023-02-15T01:03:00;4.60;83.70
67141;DHT22;54058;52.010;5.546;2023-02-15T01:05:26;4.60;83.60
67141;DHT22;54058;52.010;5.546;2023-02-15T01:07:52;4.60;83.70
67141;DHT22;54058;52.010;5.546;2023-02-15T01:10:18;4.60;83.70
67141;DHT22;54058;52.010;5.546;2023-02-15T01:12:43;4.60;83.70
67141;DHT22;54058;52.010;5.546;2023-02-15T01:15:09;4.60;83.70
67141;DHT22;54058;52.010;5.546;2023-02-15T01:17:35;4.50;83.70
67141;DHT22;54058;52.010;5.546;2023-02-15T01:20:01;4.50;83.80
67141;DHT22;54058;52.010;5.546;2023-02-15T01:22:27;4.50;83.90
67141;DHT22;54058;52.010;5.546;2023-02-15T01:24:52;4.50;83.70
67141;DHT22;54058;52.010;5.546;2023-02-15T01:27:18;4.50;83.80
67141;DHT22;54058;52.010;5.546;2023-02-15T01:29:44;4.50;83.90
67141;DHT22;54058;52.010;5.546;2023-02-15T01:32:10;4.50;83.90
67141;DHT22;54058;52.010;5.546;2023-02-15T01:34:35;4.50;83.90
67141;DHT22;54058;52.010;5.546;2023-02-15T01:37:01;4.50;83.80
67141;DHT22;54058;52.010;5.546;2023-02-15T01:39:27;4.40;83.70
67141;DHT22;54058;52.010;5.546;2023-02-15T01:41:52;4.40;83.90
67141;DHT22;54058;52.010;5.546;2023-02-15T01:44:48;4.40;84.10
67141;DHT22;54058;52.010;5.546;2023-02-15T01:47:20;4.40;84.00
67141;DHT22;54058;52.010;5.546;2023-02-15T01:49:48;4.40;83.90
67141;DHT22;54058;52.010;5.546;2023-02-15T01:52:17;4.40;83.90
67141;DHT22;54058;52.010;5.546;2023-02-15T01:54:45;4.40;84.40
67141;DHT22;54058;52.010;5.546;2023-02-15T01:57:15;4.40;83.90
67141;DHT22;54058;52.010;5.546;2023-02-15T01:59:43;4.40;83.90
67141;DHT22;54058;52.010;5.546;2023-02-15T02:02:13;4.40;83.70
67141;DHT22;54058;52.010;5.546;2023-02-15T02:04:48;4.30;83.70
67141;DHT22;54058;52.010;5.546;2023-02-15T02:07:17;4.30;83.70
67141;DHT22;54058;52.010;5.546;2023-02-15T02:09:44;4.20;83.80
67141;DHT22;54058;52.010;5.546;2023-02-15T02:12:10;4.30;84.20
67141;DHT22;54058;52.010;5.546;2023-02-15T02:14:37;4.30;84.20
67141;DHT22;54058;52.010;5.546;2023-02-15T02:17:22;4.30;84.00
67141;DHT22;54058;52.010;5.546;2023-02-15T02:34:08;4.10;84.10
67141;DHT22;54058;52.010;5.546;2023-02-15T02:42:24;4.10;84.00
67141;DHT22;54058;52.010;5.546;2023-02-15T02:45:14;4.10;83.70
67141;DHT22;54058;52.010;5.546;2023-02-15T02:47:50;4.00;83.70
67141;DHT22;54058;52.010;5.546;2023-02-15T02:50:23;4.00;84.00
67141;DHT22;54058;52.010;5.546;2023-02-15T02:52:51;4.00;84.00
67141;DHT22;54058;52.010;5.546;2023-02-15T02:55:44;4.00;84.00
67141;DHT22;54058;52.010;5.546;2023-02-15T02:58:31;4.10;84.10
67141;DHT22;54058;52.010;5.546;2023-02-15T03:01:12;4.10;84.00
67141;DHT22;54058;52.010;5.546;2023-02-15T03:03:47;4.20;84.00
67141;DHT22;54058;52.010;5.546;2023-02-15T03:06:22;4.20;84.00
67141;DHT22;54058;52.010;5.546;2023-02-15T03:09:00;4.20;83.90
67141;DHT22;54058;52.010;5.546;2023-02-15T03:11:27;4.30;84.00
67141;DHT22;54058;52.010;5.546;2023-02-15T03:13:53;4.30;83.90
67141;DHT22;54058;52.010;5.546;2023-02-15T03:16:20;4.30;83.70
67141;DHT22;54058;52.010;5.546;2023-02-15T03:19:03;4.40;83.70
67141;DHT22;54058;52.010;5.546;2023-02-15T03:24:12;4.40;83.70
67141;DHT22;54058;52.010;5.546;2023-02-15T03:26:39;4.40;83.70
67141;DHT22;54058;52.010;5.546;2023-02-15T03:29:06;4.40;84.20
67141;DHT22;54058;52.010;5.546;2023-02-15T03:31:33;4.40;83.60
67141;DHT22;54058;52.010;5.546;2023-02-15T03:34:07;4.40;85.00
67141;DHT22;54058;52.010;5.546;2023-02-15T03:36:52;4.40;83.80
67141;DHT22;54058;52.010;5.546;2023-02-15T03:39:38;4.40;83.90
67141;DHT22;54058;52.010;5.546;2023-02-15T03:45:08;4.40;83.90
67141;DHT22;54058;52.010;5.546;2023-02-15T03:47:41;4.50;84.20
67141;DHT22;54058;52.010;5.546;2023-02-15T03:50:18;4.50;84.00
67141;DHT22;54058;52.010;5.546;2023-02-15T03:53:05;4.50;83.90
67141;DHT22;54058;52.010;5.546;2023-02-15T03:55:32;4.50;83.90
67141;DHT22;54058;52.010;5.546;2023-02-15T03:57:58;4.50;83.80
67141;DHT22;54058;52.010;5.546;2023-02-15T04:00:58;4.50;83.80
67141;DHT22;54058;52.010;5.546;2023-02-15T04:04:12;4.50;83.70
67141;DHT22;54058;52.010;5.546;2023-02-15T04:06:39;4.50;83.70
67141;DHT22;54058;52.010;5.546;2023-02-15T04:09:05;4.50;83.80
67141;DHT22;54058;52.010;5.546;2023-02-15T04:11:49;4.40;83.80
67141;DHT22;54058;52.010;5.546;2023-02-15T04:14:14;4.40;83.90
67141;DHT22;54058;52.010;5.546;2023-02-15T04:16:58;4.40;84.00
67141;DHT22;54058;52.010;5.546;2023-02-15T04:19:24;4.40;84.00
67141;DHT22;54058;52.010;5.546;2023-02-15T04:22:08;4.40;84.00
67141;DHT22;54058;52.010;5.546;2023-02-15T04:24:52;4.40;84.00
67141;DHT22;54058;52.010;5.546;2023-02-15T04:27:36;4.50;84.00
67141;DHT22;54058;52.010;5.546;2023-02-15T04:30:02;4.40;83.90
67141;DHT22;54058;52.010;5.546;2023-02-15T04:32:27;4.40;83.90
67141;DHT22;54058;52.010;5.546;2023-02-15T04:34:53;4.40;84.00
67141;DHT22;54058;52.010;5.546;2023-02-15T04:37:19;4.40;84.10
67141;DHT22;54058;52.010;5.546;2023-02-15T04:39:44;4.30;84.10
67141;DHT22;54058;52.010;5.546;2023-02-15T04:42:10;4.30;84.10
67141;DHT22;54058;52.010;5.546;2023-02-15T04:44:36;4.30;84.20
67141;DHT22;54058;52.010;5.546;2023-02-15T04:47:01;4.30;84.30
67141;DHT22;54058;52.010;5.546;2023-02-15T04:49:27;4.30;84.30
67141;DHT22;54058;52.010;5.546;2023-02-15T04:51:53;4.30;84.40
67141;DHT22;54058;52.010;5.546;2023-02-15T04:54:18;4.30;84.50
67141;DHT22;54058;52.010;5.546;2023-02-15T04:56:44;4.30;84.40
67141;DHT22;54058;52.010;5.546;2023-02-15T04:59:10;4.30;84.40
67141;DHT22;54058;52.010;5.546;2023-02-15T05:01:36;4.30;84.30
67141;DHT22;54058;52.010;5.546;2023-02-15T05:04:02;4.20;84.40
67141;DHT22;54058;52.010;5.546;2023-02-15T05:06:28;4.20;84.50
67141;DHT22;54058;52.010;5.546;2023-02-15T05:08:54;4.10;84.70
67141;DHT22;54058;52.010;5.546;2023-02-15T05:11:20;4.10;84.70
67141;DHT22;54058;52.010;5.546;2023-02-15T05:13:45;4.00;84.70
67141;DHT22;54058;52.010;5.546;2023-02-15T05:16:11;3.90;85.00
67141;DHT22;54058;52.010;5.546;2023-02-15T05:18:37;3.80;85.40
67141;DHT22;54058;52.010;5.546;2023-02-15T05:21:03;3.80;85.30
67141;DHT22;54058;52.010;5.546;2023-02-15T05:23:28;3.80;85.30
67141;DHT22;54058;52.010;5.546;2023-02-15T05:25:54;3.80;85.20
67141;DHT22;54058;52.010;5.546;2023-02-15T05:28:38;3.70;85.20
67141;DHT22;54058;52.010;5.546;2023-02-15T05:31:13;3.80;85.60
67141;DHT22;54058;52.010;5.546;2023-02-15T05:33:39;3.80;85.40
67141;DHT22;54058;52.010;5.546;2023-02-15T05:36:06;3.90;85.40
67141;DHT22;54058;52.010;5.546;2023-02-15T05:38:32;3.90;85.20
67141;DHT22;54058;52.010;5.546;2023-02-15T05:40:58;4.00;85.00
67141;DHT22;54058;52.010;5.546;2023-02-15T05:43:24;4.00;84.90
67141;DHT22;54058;52.010;5.546;2023-02-15T05:45:52;4.00;84.80
67141;DHT22;54058;52.010;5.546;2023-02-15T05:48:19;4.10;84.80
67141;DHT22;54058;52.010;5.546;2023-02-15T05:50:45;4.00;84.50
67141;DHT22;54058;52.010;5.546;2023-02-15T05:53:11;4.10;84.60
67141;DHT22;54058;52.010;5.546;2023-02-15T05:55:39;4.00;84.60
67141;DHT22;54058;52.010;5.546;2023-02-15T05:58:05;4.00;84.50
67141;DHT22;54058;52.010;5.546;2023-02-15T06:00:31;3.90;84.70
67141;DHT22;54058;52.010;5.546;2023-02-15T06:02:56;3.80;84.70
67141;DHT22;54058;52.010;5.546;2023-02-15T06:05:22;3.80;84.80
67141;DHT22;54058;52.010;5.546;2023-02-15T06:07:48;3.70;84.90
67141;DHT22;54058;52.010;5.546;2023-02-15T06:10:21;3.70;85.00
67141;DHT22;54058;52.010;5.546;2023-02-15T06:12:47;3.60;85.00
67141;DHT22;54058;52.010;5.546;2023-02-15T06:15:12;3.60;85.10
67141;DHT22;54058;52.010;5.546;2023-02-15T06:17:41;3.50;85.20
67141;DHT22;54058;52.010;5.546;2023-02-15T06:20:08;3.50;85.20
67141;DHT22;54058;52.010;5.546;2023-02-15T06:22:34;3.40;85.30
67141;DHT22;54058;52.010;5.546;2023-02-15T06:24:59;3.30;85.70
67141;DHT22;54058;52.010;5.546;2023-02-15T06:27:25;3.20;86.10
67141;DHT22;54058;52.010;5.546;2023-02-15T06:29:51;3.10;86.30
67141;DHT22;54058;52.010;5.546;2023-02-15T06:32:16;3.10;86.40
67141;DHT22;54058;52.010;5.546;2023-02-15T06:34:42;3.10;86.50
67141;DHT22;54058;52.010;5.546;2023-02-15T06:37:08;3.10;86.40
67141;DHT22;54058;52.010;5.546;2023-02-15T06:39:34;3.10;86.50
67141;DHT22;54058;52.010;5.546;2023-02-15T06:41:59;3.10;86.30
67141;DHT22;54058;52.010;5.546;2023-02-15T06:44:25;3.20;86.90
67141;DHT22;54058;52.010;5.546;2023-02-15T06:46:51;3.20;86.30
67141;DHT22;54058;52.010;5.546;2023-02-15T06:49:16;3.30;86.20
67141;DHT22;54058;52.010;5.546;2023-02-15T06:51:42;3.30;86.00
67141;DHT22;54058;52.010;5.546;2023-02-15T06:54:07;3.30;86.10
67141;DHT22;54058;52.010;5.546;2023-02-15T06:56:33;3.30;85.80
67141;DHT22;54058;52.010;5.546;2023-02-15T06:58:58;3.30;86.20
67141;DHT22;54058;52.010;5.546;2023-02-15T07:01:24;3.20;86.20
67141;DHT22;54058;52.010;5.546;2023-02-15T07:03:50;3.20;86.20
67141;DHT22;54058;52.010;5.546;2023-02-15T07:06:15;3.20;86.20
67141;DHT22;54058;52.010;5.546;2023-02-15T07:08:41;3.30;86.30
67141;DHT22;54058;52.010;5.546;2023-02-15T07:11:07;3.30;86.30
67141;DHT22;54058;52.010;5.546;2023-02-15T07:13:51;3.30;86.20
67141;DHT22;54058;52.010;5.546;2023-02-15T07:16:20;3.30;86.40
67141;DHT22;54058;52.010;5.546;2023-02-15T07:18:46;3.40;86.40
67141;DHT22;54058;52.010;5.546;2023-02-15T07:21:12;3.40;86.30
67141;DHT22;54058;52.010;5.546;2023-02-15T07:23:39;3.50;86.10
67141;DHT22;54058;52.010;5.546;2023-02-15T07:26:06;3.50;86.00
67141;DHT22;54058;52.010;5.546;2023-02-15T07:28:33;3.60;86.00
67141;DHT22;54058;52.010;5.546;2023-02-15T07:31:02;3.60;86.10
67141;DHT22;54058;52.010;5.546;2023-02-15T07:33:29;3.60;85.90
67141;DHT22;54058;52.010;5.546;2023-02-15T07:36:00;3.70;85.80
67141;DHT22;54058;52.010;5.546;2023-02-15T07:38:32;3.70;86.10
67141;DHT22;54058;52.010;5.546;2023-02-15T07:40:59;3.70;86.00
67141;DHT22;54058;52.010;5.546;2023-02-15T07:43:25;3.80;86.20
67141;DHT22;54058;52.010;5.546;2023-02-15T07:45:50;3.80;86.20
67141;DHT22;54058;52.010;5.546;2023-02-15T07:48:16;3.70;86.10
67141;DHT22;54058;52.010;5.546;2023-02-15T07:50:42;3.80;86.30
67141;DHT22;54058;52.010;5.546;2023-02-15T07:53:08;3.90;86.40
67141;DHT22;54058;52.010;5.546;2023-02-15T07:55:34;3.90;86.60
67141;DHT22;54058;52.010;5.546;2023-02-15T07:58:00;4.00;86.50
67141;DHT22;54058;52.010;5.546;2023-02-15T08:00:26;4.00;86.50
67141;DHT22;54058;52.010;5.546;2023-02-15T08:02:54;4.10;86.40
67141;DHT22;54058;52.010;5.546;2023-02-15T08:05:43;4.10;86.40
67141;DHT22;54058;52.010;5.546;2023-02-15T08:08:10;4.20;86.60
67141;DHT22;54058;52.010;5.546;2023-02-15T08:11:16;4.30;86.60
67141;DHT22;54058;52.010;5.546;2023-02-15T08:13:53;4.50;86.50
67141;DHT22;54058;52.010;5.546;2023-02-15T08:16:40;4.60;86.50
67141;DHT22;54058;52.010;5.546;2023-02-15T08:19:18;4.70;86.50
67141;DHT22;54058;52.010;5.546;2023-02-15T08:21:46;4.80;86.50
67141;DHT22;54058;52.010;5.546;2023-02-15T08:24:14;4.80;86.50
67141;DHT22;54058;52.010;5.546;2023-02-15T08:26:41;5.00;87.00
67141;DHT22;54058;52.010;5.546;2023-02-15T08:29:07;5.20;86.70
67141;DHT22;54058;52.010;5.546;2023-02-15T08:31:34;5.20;86.30
67141;DHT22;54058;52.010;5.546;2023-02-15T08:34:00;5.30;86.20
67141;DHT22;54058;52.010;5.546;2023-02-15T08:36:28;5.40;86.20
67141;DHT22;54058;52.010;5.546;2023-02-15T08:38:57;5.60;86.10
67141;DHT22;54058;52.010;5.546;2023-02-15T08:41:34;5.60;86.00
67141;DHT22;54058;52.010;5.546;2023-02-15T08:44:02;5.70;86.10
67141;DHT22;54058;52.010;5.546;2023-02-15T08:46:31;5.80;86.10
67141;DHT22;54058;52.010;5.546;2023-02-15T08:48:57;5.90;86.10
67141;DHT22;54058;52.010;5.546;2023-02-15T08:51:25;6.10;86.10
67141;DHT22;54058;52.010;5.546;2023-02-15T08:53:54;6.20;86.10
67141;DHT22;54058;52.010;5.546;2023-02-15T08:56:22;6.30;86.10
67141;DHT22;54058;52.010;5.546;2023-02-15T08:58:48;6.50;85.90
67141;DHT22;54058;52.010;5.546;2023-02-15T09:01:23;6.60;85.90
67141;DHT22;54058;52.010;5.546;2023-02-15T09:03:50;6.70;85.80
67141;DHT22;54058;52.010;5.546;2023-02-15T09:06:19;6.70;85.70
67141;DHT22;54058;52.010;5.546;2023-02-15T09:08:45;6.80;85.70
67141;DHT22;54058;52.010;5.546;2023-02-15T09:11:22;6.90;85.70
67141;DHT22;54058;52.010;5.546;2023-02-15T09:16:19;7.10;85.70
67141;DHT22;54058;52.010;5.546;2023-02-15T09:18:45;7.20;85.60
67141;DHT22;54058;52.010;5.546;2023-02-15T09:21:13;7.30;85.40
67141;DHT22;54058;52.010;5.546;2023-02-15T09:23:39;7.30;85.40
67141;DHT22;54058;52.010;5.546;2023-02-15T09:26:07;7.40;85.40
67141;DHT22;54058;52.010;5.546;2023-02-15T09:28:34;7.40;85.40
67141;DHT22;54058;52.010;5.546;2023-02-15T09:31:32;7.40;85.40
67141;DHT22;54058;52.010;5.546;2023-02-15T09:34:00;7.50;85.10
67141;DHT22;54058;52.010;5.546;2023-02-15T09:36:31;7.60;85.40
67141;DHT22;54058;52.010;5.546;2023-02-15T09:39:13;7.70;85.40
67141;DHT22;54058;52.010;5.546;2023-02-15T09:50:06;7.80;85.20
67141;DHT22;54058;52.010;5.546;2023-02-15T10:00:40;8.00;84.80
67141;DHT22;54058;52.010;5.546;2023-02-15T10:11:48;8.30;84.20
67141;DHT22;54058;52.010;5.546;2023-02-15T10:26:18;8.60;83.60
67141;DHT22;54058;52.010;5.546;2023-02-15T10:29:07;8.70;83.30
67141;DHT22;54058;52.010;5.546;2023-02-15T10:37:01;9.00;83.50
67141;DHT22;54058;52.010;5.546;2023-02-15T10:40:04;9.00;82.90
67141;DHT22;54058;52.010;5.546;2023-02-15T10:45:37;9.20;83.20
67141;DHT22;54058;52.010;5.546;2023-02-15T10:50:48;9.20;82.60
67141;DHT22;54058;52.010;5.546;2023-02-15T10:59:39;9.20;82.50
67141;DHT22;54058;52.010;5.546;2023-02-15T11:05:41;9.30;83.00
67141;DHT22;54058;52.010;5.546;2023-02-15T11:08:09;9.30;82.80
67141;DHT22;54058;52.010;5.546;2023-02-15T11:10:58;9.40;82.80
67141;DHT22;54058;52.010;5.546;2023-02-15T11:13:28;9.50;82.10
67141;DHT22;54058;52.010;5.546;2023-02-15T11:16:11;9.60;82.40
67141;DHT22;54058;52.010;5.546;2023-02-15T11:18:44;9.70;82.30
67141;DHT22;54058;52.010;5.546;2023-02-15T11:21:24;9.80;82.50
67141;DHT22;54058;52.010;5.546;2023-02-15T11:23:51;9.80;82.40
67141;DHT22;54058;52.010;5.546;2023-02-15T11:26:26;9.90;82.50
67141;DHT22;54058;52.010;5.546;2023-02-15T11:29:01;9.90;82.50
67141;DHT22;54058;52.010;5.546;2023-02-15T11:31:41;10.00;82.20
67141;DHT22;54058;52.010;5.546;2023-02-15T11:34:31;10.00;82.40
67141;DHT22;54058;52.010;5.546;2023-02-15T11:37:05;10.00;82.10
67141;DHT22;54058;52.010;5.546;2023-02-15T11:39:33;10.10;82.50
67141;DHT22;54058;52.010;5.546;2023-02-15T11:42:01;10.20;82.30
67141;DHT22;54058;52.010;5.546;2023-02-15T11:44:42;10.40;80.30
67141;DHT22;54058;52.010;5.546;2023-02-15T11:47:10;10.50;82.00
67141;DHT22;54058;52.010;5.546;2023-02-15T11:49:37;10.60;82.00
67141;DHT22;54058;52.010;5.546;2023-02-15T11:52:21;10.60;81.80
67141;DHT22;54058;52.010;5.546;2023-02-15T11:54:49;10.80;81.10
67141;DHT22;54058;52.010;5.546;2023-02-15T12:00:12;10.90;81.80
67141;DHT22;54058;52.010;5.546;2023-02-15T12:02:42;11.00;81.30
67141;DHT22;54058;52.010;5.546;2023-02-15T12:05:16;11.10;81.50
67141;DHT22;54058;52.010;5.546;2023-02-15T12:07:47;11.10;81.30
67141;DHT22;54058;52.010;5.546;2023-02-15T12:10:18;11.20;81.30
67141;DHT22;54058;52.010;5.546;2023-02-15T12:12:45;11.30;81.20
67141;DHT22;54058;52.010;5.546;2023-02-15T12:15:12;11.30;81.20
67141;DHT22;54058;52.010;5.546;2023-02-15T12:17:39;11.30;81.20
67141;DHT22;54058;52.010;5.546;2023-02-15T12:22:46;11.40;81.00
67141;DHT22;54058;52.010;5.546;2023-02-15T12:27:54;11.50;80.60
67141;DHT22;54058;52.010;5.546;2023-02-15T12:30:31;11.50;81.00
67141;DHT22;54058;52.010;5.546;2023-02-15T12:33:25;11.60;80.80
67141;DHT22;54058;52.010;5.546;2023-02-15T12:36:54;11.60;80.40
67141;DHT22;54058;52.010;5.546;2023-02-15T12:39:27;11.70;80.70
67141;DHT22;54058;52.010;5.546;2023-02-15T12:44:21;11.80;80.70
67141;DHT22;54058;52.010;5.546;2023-02-15T12:49:33;11.80;79.80
67141;DHT22;54058;52.010;5.546;2023-02-15T12:52:02;11.80;80.20
67141;DHT22;54058;52.010;5.546;2023-02-15T12:54:39;11.80;80.30
67141;DHT22;54058;52.010;5.546;2023-02-15T12:59:55;11.90;80.10
67141;DHT22;54058;52.010;5.546;2023-02-15T13:07:45;11.80;79.80
67141;DHT22;54058;52.010;5.546;2023-02-15T13:10:56;11.80;79.80
67141;DHT22;54058;52.010;5.546;2023-02-15T13:13:28;11.70;78.70
67141;DHT22;54058;52.010;5.546;2023-02-15T13:18:38;11.60;79.60
67141;DHT22;54058;52.010;5.546;2023-02-15T13:21:11;11.60;79.40
67141;DHT22;54058;52.010;5.546;2023-02-15T13:23:37;11.60;79.40
67141;DHT22;54058;52.010;5.546;2023-02-15T13:26:08;11.60;79.60
67141;DHT22;54058;52.010;5.546;2023-02-15T13:28:42;11.60;79.50
67141;DHT22;54058;52.010;5.546;2023-02-15T13:31:19;11.50;78.00
67141;DHT22;54058;52.010;5.546;2023-02-15T13:33:53;11.60;79.00
67141;DHT22;54058;52.010;5.546;2023-02-15T13:36:25;11.50;76.10
67141;DHT22;54058;52.010;5.546;2023-02-15T13:41:35;11.60;79.10
67141;DHT22;54058;52.010;5.546;2023-02-15T13:52:26;11.70;79.00
67141;DHT22;54058;52.010;5.546;2023-02-15T13:56:02;11.70;78.70
67141;DHT22;54058;52.010;5.546;2023-02-15T14:00:33;11.80;78.80
67141;DHT22;54058;52.010;5.546;2023-02-15T14:09:06;11.80;78.40
67141;DHT22;54058;52.010;5.546;2023-02-15T14:11:40;11.80;78.30
67141;DHT22;54058;52.010;5.546;2023-02-15T14:14:23;11.80;78.60
67141;DHT22;54058;52.010;5.546;2023-02-15T14:19:52;11.80;78.30
67141;DHT22;54058;52.010;5.546;2023-02-15T14:22:27;11.80;78.20
67141;DHT22;54058;52.010;5.546;2023-02-15T14:25:21;11.80;78.10
67141;DHT22;54058;52.010;5.546;2023-02-15T14:27:57;11.80;77.70
67141;DHT22;54058;52.010;5.546;2023-02-15T14:30:29;11.80;78.30
67141;DHT22;54058;52.010;5.546;2023-02-15T14:33:02;11.80;78.20
67141;DHT22;54058;52.010;5.546;2023-02-15T14:35:30;11.80;78.20
67141;DHT22;54058;52.010;5.546;2023-02-15T14:46:21;11.80;77.30
67141;DHT22;54058;52.010;5.546;2023-02-15T14:48:52;11.80;78.00
67141;DHT22;54058;52.010;5.546;2023-02-15T14:54:10;11.80;77.40
67141;DHT22;54058;52.010;5.546;2023-02-15T14:56:36;11.80;77.80
67141;DHT22;54058;52.010;5.546;2023-02-15T14:59:24;11.80;77.70
67141;DHT22;54058;52.010;5.546;2023-02-15T15:02:03;11.80;77.00
67141;DHT22;54058;52.010;5.546;2023-02-15T15:04:41;11.70;77.50
67141;DHT22;54058;52.010;5.546;2023-02-15T15:09:41;11.70;77.50
67141;DHT22;54058;52.010;5.546;2023-02-15T15:14:53;11.70;77.00
67141;DHT22;54058;52.010;5.546;2023-02-15T15:22:50;11.60;77.20
67141;DHT22;54058;52.010;5.546;2023-02-15T15:25:50;11.60;77.60
67141;DHT22;54058;52.010;5.546;2023-02-15T15:42:43;11.20;77.20
67141;DHT22;54058;52.010;5.546;2023-02-15T15:50:25;11.10;77.20
67141;DHT22;54058;52.010;5.546;2023-02-15T15:52:56;11.10;77.30
67141;DHT22;54058;52.010;5.546;2023-02-15T15:55:25;11.00;77.20
67141;DHT22;54058;52.010;5.546;2023-02-15T15:57:59;11.00;77.30
67141;DHT22;54058;52.010;5.546;2023-02-15T16:00:36;11.00;77.30
67141;DHT22;54058;52.010;5.546;2023-02-15T16:03:05;10.90;77.30
67141;DHT22;54058;52.010;5.546;2023-02-15T16:05:40;10.90;77.30
67141;DHT22;54058;52.010;5.546;2023-02-15T16:08:06;10.80;77.30
67141;DHT22;54058;52.010;5.546;2023-02-15T16:10:33;10.80;77.40
67141;DHT22;54058;52.010;5.546;2023-02-15T16:13:00;10.70;77.40
67141;DHT22;54058;52.010;5.546;2023-02-15T16:18:14;10.60;77.40
67141;DHT22;54058;52.010;5.546;2023-02-15T16:20:41;10.60;77.60
67141;DHT22;54058;52.010;5.546;2023-02-15T16:28:39;10.40;77.60
67141;DHT22;54058;52.010;5.546;2023-02-15T16:31:13;10.40;77.70
67141;DHT22;54058;52.010;5.546;2023-02-15T16:33:41;10.30;77.60
67141;DHT22;54058;52.010;5.546;2023-02-15T16:36:36;10.30;77.70
67141;DHT22;54058;52.010;5.546;2023-02-15T16:39:19;10.30;77.70
67141;DHT22;54058;52.010;5.546;2023-02-15T16:41:45;10.20;77.70
67141;DHT22;54058;52.010;5.546;2023-02-15T16:44:16;10.10;77.80
67141;DHT22;54058;52.010;5.546;2023-02-15T16:46:45;10.10;77.70
67141;DHT22;54058;52.010;5.546;2023-02-15T16:49:22;10.00;77.90
67141;DHT22;54058;52.010;5.546;2023-02-15T16:52:01;10.00;78.00
67141;DHT22;54058;52.010;5.546;2023-02-15T16:54:29;9.90;78.00
67141;DHT22;54058;52.010;5.546;2023-02-15T16:56:57;9.80;78.00
67141;DHT22;54058;52.010;5.546;2023-02-15T16:59:35;9.80;78.10
67141;DHT22;54058;52.010;5.546;2023-02-15T17:02:16;9.80;78.10
67141;DHT22;54058;52.010;5.546;2023-02-15T17:04:42;9.80;78.20
67141;DHT22;54058;52.010;5.546;2023-02-15T17:07:17;9.70;78.20
67141;DHT22;54058;52.010;5.546;2023-02-15T17:09:54;9.60;78.20
67141;DHT22;54058;52.010;5.546;2023-02-15T17:12:46;9.60;78.40
67141;DHT22;54058;52.010;5.546;2023-02-15T17:20:37;9.40;78.40
67141;DHT22;54058;52.010;5.546;2023-02-15T17:23:04;9.40;78.50
67141;DHT22;54058;52.010;5.546;2023-02-15T17:25:36;9.30;78.50
67141;DHT22;54058;52.010;5.546;2023-02-15T17:28:14;9.30;78.70
67141;DHT22;54058;52.010;5.546;2023-02-15T17:30:40;9.30;78.70
67141;DHT22;54058;52.010;5.546;2023-02-15T17:33:39;9.20;78.80
67141;DHT22;54058;52.010;5.546;2023-02-15T17:38:38;9.10;78.80
67141;DHT22;54058;52.010;5.546;2023-02-15T17:41:03;9.10;78.90
67141;DHT22;54058;52.010;5.546;2023-02-15T17:43:29;9.00;79.50
67141;DHT22;54058;52.010;5.546;2023-02-15T17:45:56;8.90;79.00
67141;DHT22;54058;52.010;5.546;2023-02-15T17:48:35;8.90;79.00
67141;DHT22;54058;52.010;5.546;2023-02-15T17:51:03;8.90;79.10
67141;DHT22;54058;52.010;5.546;2023-02-15T17:53:30;8.80;79.10
67141;DHT22;54058;52.010;5.546;2023-02-15T17:55:56;8.80;79.20
67141;DHT22;54058;52.010;5.546;2023-02-15T17:58:21;8.70;79.20
67141;DHT22;54058;52.010;5.546;2023-02-15T18:00:50;8.70;79.30
67141;DHT22;54058;52.010;5.546;2023-02-15T18:03:39;8.70;79.30
67141;DHT22;54058;52.010;5.546;2023-02-15T18:06:24;8.60;79.40
67141;DHT22;54058;52.010;5.546;2023-02-15T18:09:11;8.60;79.40
67141;DHT22;54058;52.010;5.546;2023-02-15T18:11:55;8.50;79.40
67141;DHT22;54058;52.010;5.546;2023-02-15T18:14:21;8.50;80.00
67141;DHT22;54058;52.010;5.546;2023-02-15T18:16:47;8.50;79.50
67141;DHT22;54058;52.010;5.546;2023-02-15T18:19:16;8.50;79.50
67141;DHT22;54058;52.010;5.546;2023-02-15T18:21:43;8.40;79.80
67141;DHT22;54058;52.010;5.546;2023-02-15T18:24:15;8.40;79.60
67141;DHT22;54058;52.010;5.546;2023-02-15T18:26:41;8.40;79.60
67141;DHT22;54058;52.010;5.546;2023-02-15T18:29:06;8.40;79.70
67141;DHT22;54058;52.010;5.546;2023-02-15T18:31:33;8.30;79.70
67141;DHT22;54058;52.010;5.546;2023-02-15T18:34:00;8.30;79.70
67141;DHT22;54058;52.010;5.546;2023-02-15T18:36:39;8.30;79.80
67141;DHT22;54058;52.010;5.546;2023-02-15T18:39:30;8.30;79.80
67141;DHT22;54058;52.010;5.546;2023-02-15T18:41:58;8.30;79.80
67141;DHT22;54058;52.010;5.546;2023-02-15T18:44:24;8.30;79.70
67141;DHT22;54058;52.010;5.546;2023-02-15T18:46:50;8.30;79.70
67141;DHT22;54058;52.010;5.546;2023-02-15T18:49:16;8.30;79.70
67141;DHT22;54058;52.010;5.546;2023-02-15T18:51:41;8.30;79.70
67141;DHT22;54058;52.010;5.546;2023-02-15T18:54:26;8.20;79.60
67141;DHT22;54058;52.010;5.546;2023-02-15T18:56:54;8.20;79.70
67141;DHT22;54058;52.010;5.546;2023-02-15T18:59:22;8.20;79.60
67141;DHT22;54058;52.010;5.546;2023-02-15T19:01:48;8.20;79.70
67141;DHT22;54058;52.010;5.546;2023-02-15T19:04:14;8.20;79.70
67141;DHT22;54058;52.010;5.546;2023-02-15T19:06:43;8.10;79.70
67141;DHT22;54058;52.010;5.546;2023-02-15T19:09:17;8.20;79.80
67141;DHT22;54058;52.010;5.546;2023-02-15T19:11:50;8.10;79.70
67141;DHT22;54058;52.010;5.546;2023-02-15T19:14:23;8.10;79.80
67141;DHT22;54058;52.010;5.546;2023-02-15T19:16:49;8.10;79.90
67141;DHT22;54058;52.010;5.546;2023-02-15T19:19:15;8.10;80.00